Latest Weather Observations for Winton

IDQ60801

Issued at 5:32 pm EST Friday 4 September 2015 (issued every 30 minutes, with the page automatically refreshed every 10 minutes)

About weather observations | Map of weather stations | Latest weather observations for QLD | Other Formats
Station Details ID: 037039 Name: WINTON AIRPORT Lat: -22.36 Lon: 143.08 Height: 192.2 m
Data from the previous 72 hours. | See also: Recent months at Winton
Date/Time
EST
Temp
°C
App
Temp
°C
Dew
Point
Rel
Hum
%
Delta-T
°C
Wind Press
QNH
hPa
Press
MSL
hPa
Rain
since 9 am
mm
Dir
 
Spd
km/h
Gust
km/h
Spd
kts
Gust
kts
04/05:30pm 25.1 20.3 -0.1 19 11.7 SW 15 19 8 10 1018.0 1017.2 0.0
04/05:00pm 25.7 21.2 -0.4 18 12.1 SSW 13 20 7 11 1017.8 1016.9 0.0
04/04:30pm 25.9 21.0 -0.2 18 12.2 SW 15 24 8 13 1017.8 1016.9 0.0
04/04:00pm 26.0 22.8 0.6 19 12.0 SSW 7 19 4 10 1017.7 1016.8 0.0
04/03:30pm 25.6 22.1 1.0 20 11.7 S 9 20 5 11 1017.8 1016.9 0.0
04/03:00pm 25.2 20.4 0.0 19 11.7 S 15 22 8 12 1018.0 1017.2 0.0
04/02:30pm 25.1 22.3 1.9 22 11.2 S 6 11 3 6 1018.4 1017.6 0.0
04/02:00pm 24.5 21.0 1.4 22 10.9 SW 9 24 5 13 1018.8 1018.0 0.0
04/01:30pm 24.4 20.2 1.9 23 10.8 SSW 13 20 7 11 1019.2 1018.4 0.0
04/01:00pm 24.0 20.7 2.2 24 10.4 SSE 9 17 5 9 1019.7 1018.9 0.0
04/12:30pm 23.7 20.0 2.5 25 10.2 SSE 11 22 6 12 1020.3 1019.5 0.0
04/12:00pm 23.0 18.2 2.5 26 9.8 SE 17 26 9 14 1021.2 1020.4 0.0
04/11:30am 22.0 18.3 2.2 27 9.4 SSE 11 24 6 13 1021.8 1020.9 0.0
04/11:00am 21.9 17.9 3.1 29 9.0 SSE 13 22 7 12 1022.4 1021.5 0.0
04/10:30am 21.2 16.5 3.0 30 8.7 ESE 17 28 9 15 1022.6 1021.8 0.0
04/10:00am 21.4 16.2 3.6 31 8.6 ESE 20 26 11 14 1022.9 1022.1 0.0
04/09:30am 20.1 14.5 3.3 33 8.0 ESE 22 32 12 17 1022.9 1022.1 0.0
04/09:00am 19.0 12.9 2.8 34 7.5 SE 24 30 13 16 1022.8 1022.0 0.0
04/08:30am 17.4 12.8 1.8 35 7.1 SE 15 22 8 12 1022.7 1021.9 0.0
04/08:00am 14.5 12.1 0.0 37 6.1 SE 2 6 1 3 1022.5 1021.6 0.0
04/07:30am 11.4 9.4 -0.4 44 4.8 CALM 0 0 0 0 1022.2 1021.3 0.0
04/07:00am 8.2 5.7 -4.2 41 4.4 CALM 0 0 0 0 1021.9 1021.0 0.0
04/06:30am 9.2 6.9 -2.1 45 4.3 CALM 0 0 0 0 1021.5 1020.6 0.0
04/06:00am 10.4 7.2 -0.4 47 4.3 SSW 6 7 3 4 1020.8 1020.0 0.0
04/05:30am 10.7 7.3 -0.7 45 4.6 SW 7 7 4 4 1020.3 1019.5 0.0
04/05:00am 10.1 5.8 -1.9 43 4.7 SW 11 11 6 6 1020.0 1019.2 0.0
04/04:30am 10.6 7.0 -1.8 42 4.9 SW 7 7 4 4 1019.9 1019.1 0.0
04/04:00am 10.9 7.4 -2.5 39 5.2 SW 6 7 3 4 1019.8 1019.0 0.0
04/03:30am 12.5 9.4 0.0 42 5.2 SSW 6 6 3 3 1019.8 1019.0 0.0
04/03:00am 12.0 8.6 -2.2 37 5.6 SSW 6 6 3 3 1019.9 1019.1 0.0
04/02:30am 12.2 9.6 -2.0 37 5.6 S 2 4 1 2 1020.1 1019.3 0.0
04/02:00am 12.2 8.7 -3.2 34 5.9 S 6 7 3 4 1020.0 1019.2 0.0
04/01:30am 12.7 9.5 -3.5 32 6.3 SSE 4 6 2 3 1020.2 1019.4 0.0
04/01:00am 12.7 7.6 -4.9 29 6.6 SSW 13 13 7 7 1020.3 1019.5 0.0
04/12:30am 13.1 8.4 -5.4 27 6.9 SSW 11 13 6 7 1020.5 1019.7 0.0
04/12:00am 13.9 9.1 -5.8 25 7.3 SW 11 11 6 6 1020.5 1019.7 0.0
 
Date/Time
EST
Temp
°C
App
Temp
°C
Dew
Point
Rel
Hum
%
Delta-T
°C
Wind Press
QNH
hPa
Press
MSL
hPa
Rain
since 9 am
mm
Dir
 
Spd
km/h
Gust
km/h
Spd
kts
Gust
kts
03/11:30pm 14.0 9.9 -6.8 23 7.6 SW 7 7 4 4 1020.4 1019.6 0.0
03/11:00pm 13.7 9.7 -7.6 22 7.6 SW 6 6 3 3 1020.4 1019.6 0.0
03/10:30pm 14.6 10.5 -6.8 22 7.8 WSW 7 9 4 5 1020.5 1019.7 0.0
03/10:00pm 15.3 10.8 -6.9 21 8.2 WSW 9 11 5 6 1020.4 1019.6 0.0
03/09:30pm 16.8 12.8 -5.6 21 8.6 SW 7 9 4 5 1020.3 1019.5 0.0
03/09:00pm 17.7 13.3 -5.5 20 9.0 SW 9 11 5 6 1020.2 1019.4 0.0
03/08:30pm 18.1 13.8 -5.2 20 9.2 SSW 9 9 5 5 1019.8 1019.0 0.0
03/08:00pm 18.8 14.8 -5.3 19 9.5 SSW 7 9 4 5 1019.6 1018.8 0.0
03/07:30pm 18.9 14.5 -5.9 18 9.7 SSW 9 9 5 5 1019.2 1018.4 0.0
03/07:00pm 20.4 15.7 -5.4 17 10.3 SSW 11 11 6 6 1018.9 1018.1 0.0
03/06:30pm 23.3 18.2 -4.8 15 11.7 SSW 13 15 7 8 1018.6 1017.8 0.0
03/06:00pm 25.1 19.3 -4.2 14 12.6 SSW 17 22 9 12 1018.2 1017.4 0.0
03/05:30pm 26.0 20.2 -4.5 13 13.1 SW 17 22 9 12 1018.0 1017.2 0.0
03/05:00pm 26.0 20.7 -3.5 14 12.9 SW 15 28 8 15 1018.0 1017.2 0.0
03/04:30pm 26.8 20.6 -4.9 12 13.7 SSW 19 28 10 15 1018.1 1017.3 0.0
03/04:00pm 26.6 20.5 -4.0 13 13.3 SW 19 26 10 14 1018.1 1017.3 0.0
03/03:30pm 26.6 21.4 -3.1 14 13.2 SSW 15 24 8 13 1018.1 1017.3 0.0
03/03:00pm 25.8 20.7 -1.9 16 12.5 SW 15 32 8 17 1018.4 1017.6 0.0
03/02:30pm 26.0 21.0 -0.9 17 12.4 SW 15 26 8 14 1018.7 1017.9 0.0
03/02:00pm 25.3 20.6 -1.5 17 12.1 SW 13 24 7 13 1019.2 1018.4 0.0
03/01:30pm 24.3 20.5 -0.8 19 11.4 SW 9 22 5 12 1019.7 1018.9 0.0
03/01:00pm 23.8 19.4 0.2 21 10.9 SW 13 24 7 13 1020.0 1019.2 0.0
03/12:30pm 23.8 19.3 -0.5 20 11.1 WSW 13 28 7 15 1020.7 1019.9 0.0
03/12:00pm 22.6 17.3 -0.8 21 10.5 WSW 17 28 9 15 1021.2 1020.4 0.0
03/11:30am 21.9 18.3 0.4 24 9.8 S 9 19 5 10 1021.7 1020.8 0.0
03/11:00am 21.6 16.9 0.8 25 9.5 SW 15 26 8 14 1022.3 1021.4 0.0
03/10:30am 21.8 17.5 0.9 25 9.6 S 13 24 7 13 1022.5 1021.6 0.0
03/10:00am 20.0 15.2 -0.1 26 8.9 SSW 15 26 8 14 1022.8 1022.0 0.0
03/09:30am 19.6 14.3 -0.4 26 8.8 S 17 26 9 14 1022.7 1021.9 0.0
03/09:00am 18.4 14.4 -2.0 25 8.6 S 9 15 5 8 1022.5 1021.6 0.0
03/08:30am 17.7 13.9 -3.7 23 8.7 S 7 11 4 6 1022.1 1021.2 0.0
03/08:00am 17.4 13.1 -4.5 22 8.7 SSW 9 13 5 7 1021.6 1020.7 0.0
03/07:30am 14.2 10.4 -5.5 25 7.4 SW 6 6 3 3 1021.0 1020.2 0.0
03/07:00am 14.3 10.5 -6.0 24 7.5 SSW 6 7 3 4 1020.4 1019.6 0.0
03/06:30am 13.9 9.9 -5.8 25 7.3 SW 7 9 4 5 1019.9 1019.1 0.0
03/06:00am 13.4 9.3 -6.2 25 7.2 SW 7 9 4 5 1019.5 1018.7 0.0
03/05:30am 14.4 9.9 -6.4 23 7.7 SSW 9 9 5 5 1019.0 1018.2 0.0
03/05:00am 15.1 11.1 -5.9 23 7.9 SSW 7 9 4 5 1018.8 1018.0 0.0
03/04:30am 15.7 11.4 -5.3 23 8.0 SW 9 11 5 6 1018.6 1017.8 0.0
03/04:00am 16.3 11.6 -5.4 22 8.3 SW 11 13 6 7 1018.1 1017.3 0.0
03/03:30am 16.6 11.5 -5.2 22 8.5 SSW 13 15 7 8 1017.8 1016.9 0.0
03/03:00am 17.6 11.8 -5.0 21 8.9 SSW 17 20 9 11 1017.9 1017.0 0.0
03/02:30am 18.5 11.7 -4.9 20 9.3 SSW 22 26 12 14 1017.6 1016.7 0.0
03/02:00am 18.8 12.8 -3.3 22 9.1 SSW 19 22 10 12 1017.4 1016.5 0.0
03/01:30am 20.2 13.8 -1.6 23 9.4 SSW 22 28 12 15 1017.3 1016.4 0.0
03/01:00am 20.7 13.6 -1.1 23 9.6 SW 26 35 14 19 1017.1 1016.2 0.0
03/12:30am 21.0 14.3 -0.9 23 9.7 SSW 24 32 13 17 1017.1 1016.2 0.0
03/12:00am 21.8 15.7 0.4 24 9.8 SW 22 32 12 17 1016.9 1016.0 0.0
 
Date/Time
EST
Temp
°C
App
Temp
°C
Dew
Point
Rel
Hum
%
Delta-T
°C
Wind Press
QNH
hPa
Press
MSL
hPa
Rain
since 9 am
mm
Dir
 
Spd
km/h
Gust
km/h
Spd
kts
Gust
kts
02/11:30pm 21.6 16.6 1.3 26 9.4 SW 17 22 9 12 1016.7 1015.8 0.0
02/11:00pm 22.6 16.6 1.0 24 10.0 SW 22 28 12 15 1016.4 1015.5 0.0
02/10:30pm 23.4 16.5 2.3 25 10.1 SW 28 37 15 20 1016.1 1015.2 0.0
02/10:00pm 23.8 18.0 4.2 28 9.7 SW 24 35 13 19 1015.7 1014.9 0.0
02/09:30pm 23.6 18.5 4.0 28 9.7 SW 20 24 11 13 1015.3 1014.5 0.0
02/09:00pm 23.8 19.2 3.7 27 9.9 SW 17 22 9 12 1015.0 1014.2 0.0
02/08:30pm 24.8 18.9 4.0 26 10.4 SW 24 32 13 17 1014.6 1013.8 0.0
02/08:00pm 25.5 19.6 4.0 25 10.8 SW 24 32 13 17 1014.2 1013.4 0.0
02/07:30pm 26.5 19.5 4.3 24 11.3 WSW 30 41 16 22 1013.4 1012.6 0.0
02/07:00pm 27.5 21.2 3.9 22 12.0 WSW 26 32 14 17 1012.8 1011.9 0.0
02/06:30pm 28.6 21.1 4.2 21 12.5 WSW 33 43 18 23 1012.2 1011.3 0.0
02/06:00pm 30.5 23.0 3.5 18 13.9 WSW 32 39 17 21 1011.7 1010.8 0.0
02/05:30pm 31.9 23.8 3.0 16 14.8 WSW 35 50 19 27 1011.1 1010.2 0.0
02/05:29pm 31.9 23.4 3.0 16 14.8 WSW 37 50 20 27 1011.1 1010.2 0.0
02/05:00pm 35.0 26.2 -1.1 10 17.7 NW 35 48 19 26 1010.1 1009.3 0.0
02/04:36pm 35.6 26.1 -0.7 10 17.9 NW 39 57 21 31 1010.2 1009.4 0.0
02/04:30pm 35.2 25.7 -1.0 10 17.8 WNW 39 56 21 30 1010.1 1009.3 0.0
02/04:06pm 35.3 25.8 -0.9 10 17.8 WNW 39 57 21 31 1010.0 1009.2 0.0
02/04:00pm 35.2 24.7 -1.0 10 17.8 WNW 44 57 24 31 1009.9 1009.1 0.0
02/03:40pm 35.1 25.6 -1.1 10 17.7 NW 39 59 21 32 1010.1 1009.3 0.0
02/03:30pm 35.2 25.3 -1.0 10 17.8 WNW 41 56 22 30 1010.0 1009.2 0.0
02/03:00pm 36.5 28.2 0.0 10 18.4 NW 33 44 18 24 1010.4 1009.6 0.0
02/02:30pm 34.7 25.5 -1.4 10 17.5 NW 37 52 20 28 1010.8 1009.9 0.0
02/02:17pm 34.8 26.4 -1.3 10 17.6 NW 33 52 18 28 1010.8 1009.9 0.0
02/02:00pm 36.1 26.3 -0.3 10 18.2 NNW 41 57 22 31 1010.7 1009.8 0.0
02/01:42pm 35.6 26.3 -2.1 9 18.2 NNW 37 57 20 31 1010.8 1009.9 0.0
02/01:30pm 35.4 26.3 -0.8 10 17.8 NNW 37 54 20 29 1011.1 1010.2 0.0
02/01:09pm 35.6 26.5 -0.7 10 17.9 NNW 37 57 20 31 1011.4 1010.5 0.0
02/01:00pm 33.9 25.0 -2.0 10 17.2 NNW 35 50 19 27 1011.8 1010.9 0.0
02/12:31pm 34.7 24.7 -1.4 10 17.5 NNW 41 59 22 32 1012.0 1011.1 0.0
02/12:30pm 35.1 25.2 -1.1 10 17.7 NNW 41 54 22 29 1012.1 1011.2 0.0
02/12:00pm 34.4 24.4 -1.6 10 17.4 NNW 41 52 22 28 1012.6 1011.7 0.0
02/11:30am 33.5 23.4 -2.3 10 17.0 NNW 41 54 22 29 1013.0 1012.1 0.0
02/11:00am 33.4 23.9 -1.0 11 16.7 N 39 54 21 29 1013.3 1012.4 0.0
02/10:30am 32.8 23.7 -0.3 12 16.2 N 37 50 20 27 1013.6 1012.8 0.0
02/10:00am 32.0 24.3 0.2 13 15.6 N 30 43 16 23 1014.0 1013.2 0.0
02/09:30am 30.1 24.5 1.5 16 14.1 NNE 20 30 11 16 1014.1 1013.3 0.0
02/09:00am 26.9 20.7 2.1 20 12.1 N 24 28 13 15 1014.4 1013.6 0.0
02/08:30am 24.4 19.5 1.9 23 10.8 NNE 17 24 9 13 1014.2 1013.4 0.0
02/08:00am 21.4 16.1 -0.6 23 9.8 NNE 17 20 9 11 1014.1 1013.3 0.0
02/07:30am 20.1 14.6 -2.3 22 9.6 NNE 17 22 9 12 1014.0 1013.2 0.0
02/07:00am 18.2 12.9 -3.8 22 8.9 NNE 15 17 8 9 1013.8 1013.0 0.0
02/06:30am 17.6 12.7 -3.7 23 8.6 NNE 13 15 7 8 1013.6 1012.8 0.0
02/06:00am 17.7 12.3 -4.3 22 8.8 NE 15 17 8 9 1013.4 1012.6 0.0
02/05:30am 17.1 11.7 -4.8 22 8.6 NE 15 17 8 9 1013.2 1012.3 0.0
02/05:00am 16.2 10.6 -6.1 21 8.4 NE 15 17 8 9 1013.0 1012.1 0.0
02/04:30am 16.6 11.4 -5.8 21 8.6 NE 13 15 7 8 1013.0 1012.1 0.0
02/04:00am 16.9 12.2 -5.5 21 8.7 ENE 11 13 6 7 1013.2 1012.3 0.0
02/03:30am 17.3 12.6 -4.6 22 8.7 ENE 11 13 6 7 1013.3 1012.4 0.0
02/03:00am 17.3 12.6 -5.2 21 8.8 ENE 11 13 6 7 1013.5 1012.7 0.0
02/02:30am 16.8 12.4 -5.6 21 8.6 E 9 11 5 6 1013.6 1012.8 0.0
02/02:00am 17.3 12.6 -4.6 22 8.7 NE 11 13 6 7 1013.5 1012.7 0.0
02/01:30am 17.4 12.8 -4.5 22 8.7 NE 11 15 6 8 1013.7 1012.9 0.0
02/01:00am 17.7 13.1 -4.3 22 8.8 NE 11 13 6 7 1013.8 1013.0 0.0
02/12:30am 17.4 12.4 -4.5 22 8.7 NE 13 17 7 9 1013.7 1012.9 0.0
02/12:00am 17.7 13.1 -4.3 22 8.8 NE 11 15 6 8 1013.9 1013.1 0.0
 
Date/Time
EST
Temp
°C
App
Temp
°C
Dew
Point
Rel
Hum
%
Delta-T
°C
Wind Press
QNH
hPa
Press
MSL
hPa
Rain
since 9 am
mm
Dir
 
Spd
km/h
Gust
km/h
Spd
kts
Gust
kts
01/11:30pm 18.4 14.2 -4.3 21 9.1 NNE 9 11 5 6 1013.9 1013.1 0.0
01/11:00pm 19.0 14.4 -3.8 21 9.3 NE 11 15 6 8 1013.9 1013.1 0.0
01/10:30pm 20.1 16.3 -3.5 20 9.8 ENE 7 9 4 5 1013.8 1013.0 0.0
01/10:00pm 20.7 17.2 -3.0 20 10.0 ENE 6 7 3 4 1013.8 1013.0 0.0
01/09:30pm 21.9 18.5 -2.0 20 10.4 E 6 6 3 3 1013.8 1013.0 0.0
01/09:00pm 23.1 19.8 -1.1 20 10.8 ESE 6 7 3 4 1013.6 1012.8 0.0
01/08:30pm 23.1 19.4 -2.5 18 11.2 ESE 7 7 4 4 1013.2 1012.3 0.0
01/08:00pm 24.8 21.9 -1.1 18 11.8 SE 4 6 2 3 1012.9 1012.0 0.0
01/07:30pm 24.0 20.4 -3.3 16 11.8 SW 6 7 3 4 1012.6 1011.7 0.0
01/07:00pm 24.8 20.6 -3.6 15 12.3 WSW 9 13 5 7 1012.3 1011.4 0.0
01/06:30pm 27.0 23.3 -2.7 14 13.3 W 7 9 4 5 1011.9 1011.0 0.0
01/06:00pm 30.0 27.4 -1.4 13 14.8 W 2 6 1 3 1011.7 1010.8 0.0

Other Formats:

Comma delimited format used in spreadsheet applications
http://www.bom.gov.au/fwo/IDQ60801/IDQ60801.94342.axf

JavaScript Object Notation format (JSON) in row-major order
http://www.bom.gov.au/fwo/IDQ60801/IDQ60801.94342.json